Time;durP1;ratioP1;P1;durP2;ratioP2;P2;SDS_P1;SDS_P2;PMS_P1;PMS_P2;Temp;Humidity;BMP_temperature;BMP_pressure;BME280_temperature;BME280_humidity;BME280_pressure;Samples;Min_cycle;Max_cycle;Signal;HPM_P1;HPM_P2
2023/09/05 07:01:33;;;;;;;0.40;0.40;;;27.80;99.90;30.70;101696.00;;;;6143867;22;2990792;-71
2023/09/05 07:04:05;;;;;;;0.30;0.30;;;27.10;99.90;30.80;101703.00;;;;6309542;22;20573;-71
2023/09/05 07:06:33;;;;;;;7.90;0.63;;;26.80;99.90;31.40;101690.00;;;;6307663;22;20137;-71
2023/09/05 07:09:02;;;;;;;1.25;1.15;;;27.20;99.90;31.50;101686.00;;;;6307859;22;20191;-71
2023/09/05 07:11:31;;;;;;;0.10;0.10;;;27.10;99.90;31.70;101687.00;;;;6307604;22;20572;-71
2023/09/05 07:14:03;;;;;;;0.10;0.10;;;27.30;99.90;31.60;101678.00;;;;6307743;22;20172;-71
2023/09/05 07:16:48;;;;;;;0.10;0.10;;;27.30;99.90;31.50;101661.00;;;;6307531;22;20545;-71
2023/09/05 07:19:30;;;;;;;0.10;0.10;;;26.90;99.90;32.40;101652.00;;;;6307503;22;20140;-71
2023/09/05 07:22:04;;;;;;;0.30;0.30;;;27.50;99.90;32.80;101673.00;;;;6306660;22;20689;-73
2023/09/05 07:24:30;;;;;;;0.20;0.20;;;27.90;99.90;33.30;101675.00;;;;6309033;22;20186;-71
2023/09/05 07:27:10;;;;;;;0.55;0.52;;;28.60;99.90;30.80;101712.00;;;;6308872;22;20141;-71
2023/09/05 07:29:39;;;;;;;0.10;0.10;;;27.90;99.90;31.70;101702.00;;;;6306300;22;20602;-71
2023/09/05 07:32:08;;;;;;;0.10;0.10;;;27.40;99.90;33.00;101648.00;;;;6308846;22;20206;-71
2023/09/05 07:34:34;;;;;;;0.15;0.15;;;27.80;99.90;30.70;101709.00;;;;6306982;22;20153;-70
2023/09/05 07:37:03;;;;;;;0.10;0.10;;;27.00;99.90;32.80;101682.00;;;;6281554;22;20153;-70
2023/09/05 07:39:32;;;;;;;0.25;0.25;;;27.80;99.90;32.40;101663.00;;;;6307025;22;20144;-70
2023/09/05 07:42:01;;;;;;;0.10;0.10;;;28.30;99.90;30.60;101708.00;;;;6307330;22;20649;-70
2023/09/05 07:44:27;;;;;;;0.10;0.10;;;27.50;99.90;32.60;101690.00;;;;6307547;22;20179;-71
2023/09/05 07:46:56;;;;;;;0.38;0.38;;;27.80;99.90;33.70;101664.00;;;;6307345;22;20137;-72
2023/09/05 07:49:22;;;;;;;0.10;0.10;;;28.70;99.90;33.30;101685.00;;;;6307768;22;20190;-66
2023/09/05 07:52:06;;;;;;;0.10;0.10;;;28.70;99.90;34.60;101665.00;;;;6307289;22;20165;-67
2023/09/05 07:54:38;;;;;;;0.10;0.10;;;29.40;99.90;35.50;101667.00;;;;6308758;22;20156;-69
2023/09/05 07:57:17;;;;;;;0.77;0.55;;;30.20;99.90;33.10;101711.00;;;;6306966;22;20215;-69
2023/09/05 07:59:46;;;;;;;0.75;0.75;;;29.20;99.90;32.60;101722.00;;;;6306801;22;20250;-72
2023/09/05 08:02:32;;;;;;;0.38;0.38;;;28.70;99.90;30.00;101754.00;;;;6306369;22;20191;-71
2023/09/05 08:05:11;;;;;;;0.25;0.25;;;27.20;99.90;31.30;101728.00;;;;6281592;22;20148;-70
2023/09/05 08:07:44;;;;;;;0.38;0.38;;;27.10;99.90;29.80;101778.00;;;;6307093;22;20518;-71
2023/09/05 08:10:13;;;;;;;1.05;0.60;;;27.00;99.90;31.30;101775.00;;;;6282634;22;20153;-71
2023/09/05 08:12:58;;;;;;;0.47;0.30;;;27.00;99.90;32.70;101757.00;;;;6308647;22;20198;-71
2023/09/05 08:15:33;;;;;;;0.20;0.20;;;27.60;99.90;30.70;101785.00;;;;6305763;22;20152;-73
2023/09/05 08:18:04;;;;;;;0.28;0.28;;;27.30;99.90;33.10;101751.00;;;;6308685;22;20137;-71
2023/09/05 08:20:33;;;;;;;0.60;0.57;;;28.10;99.90;28.90;101787.00;;;;6281428;22;20149;-71
2023/09/05 08:23:11;;;;;;;0.40;0.40;;;26.70;99.90;31.90;101789.00;;;;6306964;22;20164;-71
2023/09/05 08:25:45;;;;;;;0.13;0.13;;;27.00;99.90;33.70;101740.00;;;;6280371;22;20457;-72
2023/09/05 08:28:33;;;;;;;0.32;0.32;;;28.60;99.90;33.80;101753.00;;;;6308298;22;20136;-71
2023/09/05 08:31:34;;;;;;;0.10;0.10;;;29.20;99.90;34.10;101726.00;;;;6305124;22;20164;-72
2023/09/05 08:34:26;;;;;;;0.65;0.65;;;29.50;99.90;34.40;101721.00;;;;6262948;22;20156;-72
2023/09/05 08:37:04;;;;;;;3.13;0.82;;;29.80;99.90;34.20;101724.00;;;;6295994;22;20516;-72
2023/09/05 08:39:35;;;;;;;0.68;0.68;;;30.20;99.90;32.70;101755.00;;;;6280881;22;20152;-72
2023/09/05 08:42:11;;;;;;;0.30;0.30;;;29.40;99.90;32.80;101734.00;;;;6280338;22;20289;-72
2023/09/05 08:45:05;;;;;;;0.15;0.15;;;29.10;99.90;33.20;101747.00;;;;6281402;22;20198;-72
2023/09/05 08:47:37;;;;;;;0.17;0.17;;;28.80;99.90;33.60;101723.00;;;;6305807;22;20152;-72
2023/09/05 08:50:12;;;;;;;1.13;0.75;;;29.00;99.90;34.80;101715.00;;;;6305934;22;20607;-72
2023/09/05 08:52:44;;;;;;;0.65;0.65;;;29.90;99.90;34.40;101712.00;;;;6281513;22;20167;-72
2023/09/05 08:55:18;;;;;;;0.10;0.10;;;30.10;99.90;35.30;101702.00;;;;6281092;22;20168;-72
2023/09/05 08:58:06;;;;;;;0.65;0.65;;;30.50;99.90;35.00;101704.00;;;;6303400;22;20217;-72
2023/09/05 09:01:07;;;;;;;0.43;0.43;;;30.50;99.90;33.50;101724.00;;;;6306144;22;20244;-72
2023/09/05 09:04:00;;;;;;;0.10;0.10;;;30.00;99.90;33.80;101710.00;;;;6276795;22;20184;-72
2023/09/05 09:09:46;;;;;;;1.25;0.75;;;29.40;99.90;34.00;101730.00;;;;6307065;22;20532;-72
2023/09/05 09:12:33;;;;;;;0.55;0.55;;;29.60;99.90;33.30;101742.00;;;;6306382;22;20175;-72
2023/09/05 09:15:25;;;;;;;0.20;0.20;;;29.60;99.90;33.60;101736.00;;;;6306224;22;20160;-72
2023/09/05 09:17:58;;;;;;;0.10;0.10;;;29.80;99.90;34.70;101727.00;;;;6280393;22;20160;-72
2023/09/05 09:20:28;;;;;;;0.65;0.38;;;30.10;99.90;34.00;101715.00;;;;6306034;22;20160;-71
2023/09/05 09:23:14;;;;;;;0.73;0.73;;;30.20;99.90;34.80;101714.00;;;;6308137;22;20172;-72
2023/09/05 09:26:13;;;;;;;0.50;0.50;;;30.50;99.90;35.20;101722.00;;;;6305670;22;20243;-72
2023/09/05 09:28:50;;;;;;;0.60;0.60;;;30.80;99.90;34.40;101737.00;;;;6282387;22;20152;-71
2023/09/05 09:31:29;;;;;;;1.35;0.90;;;30.50;99.90;32.60;101739.00;;;;6281349;22;20156;-69
2023/09/05 09:34:10;;;;;;;0.30;0.30;;;30.00;99.90;33.50;101754.00;;;;6280139;22;20506;-71
2023/09/05 09:36:55;;;;;;;0.10;0.10;;;29.70;99.90;34.00;101730.00;;;;6281123;22;20569;-72
2023/09/05 09:39:25;;;;;;;0.20;0.20;;;29.70;99.90;34.00;101745.00;;;;6280912;22;20542;-71
2023/09/05 09:42:00;;;;;;;0.70;0.70;;;29.90;99.90;34.60;101727.00;;;;6305677;22;20157;-69
2023/09/05 09:44:33;;;;;;;0.95;0.95;;;30.10;99.90;35.30;101749.00;;;;6306245;22;20144;-70
2023/09/05 09:47:08;;;;;;;0.45;0.45;;;30.60;99.90;36.10;101766.00;;;;6280471;22;20487;-70
2023/09/05 09:49:40;;;;;;;0.80;0.60;;;31.20;99.90;33.80;101677.00;;;;6306253;22;20223;-70
2023/09/05 09:52:34;;;;;;;0.20;0.20;;;31.00;99.90;34.70;101682.00;;;;6303724;22;20465;-70
2023/09/05 09:55:23;;;;;;;0.32;0.32;;;30.50;99.90;33.90;101687.00;;;;6274983;22;20191;-70
2023/09/05 09:58:01;;;;;;;3.30;3.10;;;30.60;99.90;34.70;101684.00;;;;6280691;22;20243;-70
2023/09/05 10:00:32;;;;;;;0.40;0.40;;;30.70;99.90;34.50;101662.00;;;;6275902;22;20163;-69
2023/09/05 10:03:04;;;;;;;0.10;0.10;;;30.60;99.90;34.70;101653.00;;;;6304132;22;20168;-69
2023/09/05 10:05:51;;;;;;;0.65;0.40;;;30.60;99.90;34.60;101677.00;;;;6280062;22;20235;-72
2023/09/05 10:08:44;;;;;;;0.13;0.13;;;30.70;99.90;34.20;101668.00;;;;6306097;22;20140;-72
2023/09/05 10:11:11;;;;;;;0.32;0.32;;;30.60;99.90;34.30;101676.00;;;;6305626;22;20172;-72
2023/09/05 10:13:41;;;;;;;0.20;0.20;;;30.30;99.90;34.40;101667.00;;;;6305753;22;20144;-70
2023/09/05 10:16:14;;;;;;;1.48;1.38;;;30.50;99.90;35.00;101670.00;;;;6278999;22;20156;-70
2023/09/05 10:18:44;;;;;;;0.50;0.50;;;30.70;99.90;35.80;101647.00;;;;6281115;22;20159;-70
2023/09/05 10:34:02;;;;;;;0.55;0.55;;;29.90;99.90;34.10;101691.00;;;;5192369;27;20497;-70
2023/09/05 10:43:15;;;;;;;0.20;0.20;;;30.50;99.90;35.50;101665.00;;;;5071716;28;20279;-71
2023/09/05 10:45:43;;;;;;;0.95;0.65;;;30.90;99.90;34.80;101655.00;;;;5075335;28;20200;-71
2023/09/05 10:48:45;;;;;;;0.17;0.17;;;30.80;99.90;36.30;101647.00;;;;5082152;28;20184;-71
2023/09/05 10:52:21;;;;;;;0.20;0.20;;;31.40;99.90;35.70;101645.00;;;;5118981;27;20708;-71
2023/09/05 10:54:50;;;;;;;0.80;0.80;;;31.50;99.90;35.30;101646.00;;;;5070961;28;20197;-71
2023/09/05 10:57:45;;;;;;;0.60;0.57;;;31.40;99.90;35.60;101626.00;;;;5090962;28;20192;-71
2023/09/05 11:00:20;;;;;;;0.30;0.30;;;31.50;99.90;36.00;101647.00;;;;5114149;27;20194;-71
2023/09/05 11:02:51;;;;;;;0.30;0.30;;;31.90;99.90;36.70;101628.00;;;;5167473;27;20537;-71
2023/09/05 11:05:27;;;;;;;0.65;0.65;;;32.10;99.90;36.10;101631.00;;;;5153819;27;20183;-71
2023/09/05 11:08:39;;;;;;;0.20;0.20;;;32.10;99.90;35.90;101620.00;;;;5127726;27;20631;-71
2023/09/05 11:11:08;;;;;;;0.70;0.70;;;32.10;99.90;36.80;101618.00;;;;5140110;27;20182;-71
2023/09/05 11:13:54;;;;;;;0.10;0.10;;;32.20;99.90;36.70;101614.00;;;;5148544;27;20196;-72
2023/09/05 11:16:29;;;;;;;0.20;0.20;;;32.30;99.90;36.50;101621.00;;;;5125992;27;20177;-71
2023/09/05 11:19:47;;;;;;;0.43;0.43;;;32.10;99.90;36.60;101618.00;;;;5132031;27;20372;-71
2023/09/05 11:22:49;;;;;;;1.15;0.50;;;32.40;99.90;36.40;101624.00;;;;5143926;27;20187;-71
2023/09/05 11:25:54;;;;;;;0.30;0.30;;;32.20;99.90;36.10;101626.00;;;;5122075;27;20529;-71
2023/09/05 11:28:49;;;;;;;0.40;0.40;;;32.10;99.90;35.50;101632.00;;;;5105208;27;20191;-71
2023/09/05 11:31:35;;;;;;;4.95;0.32;;;31.80;99.90;35.90;101623.00;;;;5149409;27;20183;-71
2023/09/05 11:34:22;;;;;;;0.47;0.30;;;31.70;99.90;35.10;101629.00;;;;5135245;27;20258;-71
2023/09/05 11:36:48;;;;;;;0.30;0.30;;;31.50;99.90;35.90;101607.00;;;;5145624;27;20254;-72
2023/09/05 11:39:20;;;;;;;0.25;0.25;;;31.40;99.90;36.20;101625.00;;;;5147204;27;20595;-71
2023/09/05 11:42:23;;;;;;;0.50;0.50;;;31.70;99.90;35.90;101619.00;;;;5135228;27;20197;-71
2023/09/05 11:45:37;;;;;;;0.75;0.63;;;31.60;99.90;35.70;101620.00;;;;5075177;27;20221;-73
2023/09/05 11:48:17;;;;;;;0.10;0.10;;;31.40;99.90;36.20;101624.00;;;;5120155;27;20209;-72
2023/09/05 11:51:24;;;;;;;2.10;0.28;;;31.50;99.90;36.20;101626.00;;;;5137548;27;20186;-72
2023/09/05 11:54:04;;;;;;;0.98;0.38;;;31.60;99.90;35.50;101609.00;;;;5081732;27;20218;-72
2023/09/05 11:56:35;;;;;;;0.22;0.22;;;31.50;99.90;35.50;101608.00;;;;5132118;27;20187;-71
2023/09/05 11:59:39;;;;;;;0.25;0.25;;;31.30;99.90;35.70;101625.00;;;;5129870;27;20183;-72
2023/09/05 12:02:40;;;;;;;0.15;0.15;;;31.30;99.90;34.90;101629.00;;;;5103120;27;20195;-72
2023/09/05 12:05:14;;;;;;;0.10;0.10;;;31.20;99.90;34.90;101627.00;;;;5033761;28;20198;-72
2023/09/05 12:08:09;;;;;;;0.57;0.52;;;30.80;99.90;35.50;101640.00;;;;5040510;28;20205;-72
2023/09/05 12:10:51;;;;;;;0.10;0.10;;;31.10;99.90;34.90;101650.00;;;;5011747;28;20704;-72
2023/09/05 12:13:43;;;;;;;0.25;0.25;;;31.00;99.90;35.10;101655.00;;;;5032361;28;20238;-72
2023/09/05 12:16:50;;;;;;;0.45;0.45;;;31.00;99.90;35.30;101651.00;;;;5146261;27;20641;-72
2023/09/05 12:19:40;;;;;;;0.10;0.10;;;31.10;99.90;35.10;101649.00;;;;5090168;27;20194;-72
2023/09/05 12:22:43;;;;;;;0.17;0.17;;;31.00;99.90;35.90;101623.00;;;;5116246;27;20183;-72
2023/09/05 12:25:39;;;;;;;0.25;0.25;;;31.10;99.90;35.20;101644.00;;;;5115976;27;20187;-72
2023/09/05 12:28:16;;;;;;;2.75;0.88;;;31.10;99.90;35.60;101641.00;;;;5135510;27;20270;-72
2023/09/05 12:31:09;;;;;;;0.40;0.40;;;31.10;99.90;35.00;101631.00;;;;5130411;27;20178;-72
2023/09/05 12:33:35;;;;;;;1.27;1.20;;;30.90;99.90;34.70;101634.00;;;;5144044;27;20191;-72
2023/09/05 12:36:14;;;;;;;0.40;0.28;;;30.80;99.90;35.20;101631.00;;;;5145503;27;20600;-72
2023/09/05 12:38:44;;;;;;;0.57;0.40;;;30.70;99.90;35.70;101624.00;;;;5124873;27;20172;-73
2023/09/05 12:41:16;;;;;;;0.30;0.30;;;30.90;99.90;35.20;101638.00;;;;5114186;27;20182;-72
2023/09/05 12:44:19;;;;;;;0.17;0.17;;;31.00;99.90;34.60;101643.00;;;;5147670;27;20175;-72
2023/09/05 12:46:59;;;;;;;0.40;0.40;;;30.80;99.90;33.30;101657.00;;;;5136336;27;20174;-72
2023/09/05 12:49:37;;;;;;;0.40;0.40;;;30.40;99.90;34.90;101641.00;;;;5146124;27;20183;-72
2023/09/05 12:52:12;;;;;;;0.35;0.35;;;30.50;99.90;35.00;101634.00;;;;5131623;27;20209;-72
2023/09/05 12:55:10;;;;;;;0.47;0.47;;;30.60;99.90;34.80;101639.00;;;;5143216;27;20194;-72
2023/09/05 12:57:54;;;;;;;1.95;0.68;;;30.60;99.90;34.70;101642.00;;;;5088994;27;20183;-72
2023/09/05 13:00:56;;;;;;;0.20;0.20;;;30.60;99.90;35.50;101640.00;;;;5102879;27;20190;-72
2023/09/05 13:03:31;;;;;;;0.17;0.17;;;30.80;99.90;35.20;101609.00;;;;5143056;27;20206;-73
2023/09/05 13:05:57;;;;;;;0.90;0.88;;;30.90;99.90;35.00;101641.00;;;;5129508;27;20210;-72
2023/09/05 13:08:39;;;;;;;0.63;0.63;;;30.80;99.90;35.10;101621.00;;;;5126513;27;20821;-72
2023/09/05 13:11:30;;;;;;;0.45;0.45;;;30.80;99.90;35.00;101641.00;;;;5142926;27;20182;-72
2023/09/05 13:13:59;;;;;;;0.10;0.10;;;30.70;99.90;34.60;101642.00;;;;5146804;27;20183;-73
2023/09/05 13:16:28;;;;;;;0.10;0.10;;;30.50;99.90;35.10;101635.00;;;;5127649;27;20171;-73
2023/09/05 13:19:08;;;;;;;0.20;0.20;;;30.70;99.90;35.00;101639.00;;;;5130666;27;20554;-73
2023/09/05 13:21:40;;;;;;;1.15;1.15;;;30.90;99.90;35.20;101647.00;;;;5145532;27;20175;-73
2023/09/05 13:24:17;;;;;;;0.40;0.40;;;30.90;99.90;35.30;101644.00;;;;5127511;27;20180;-73
2023/09/05 13:26:49;;;;;;;0.28;0.28;;;30.90;99.90;34.40;101645.00;;;;5146823;27;20178;-73
2023/09/05 13:29:24;;;;;;;0.20;0.20;;;30.80;99.90;35.60;101615.00;;;;5143757;27;20262;-72
2023/09/05 13:32:07;;;;;;;0.90;0.85;;;30.90;99.90;35.30;101641.00;;;;5126366;27;20744;-72
2023/09/05 13:35:08;;;;;;;0.28;0.28;;;30.90;99.90;34.50;101651.00;;;;5124162;27;20194;-73
2023/09/05 13:37:43;;;;;;;2.53;0.52;;;30.60;99.90;35.10;101646.00;;;;5116405;27;20190;-73
2023/09/05 13:40:18;;;;;;;0.40;0.40;;;30.70;99.90;35.30;101648.00;;;;5123040;27;20349;-72
2023/09/05 13:43:01;;;;;;;0.88;0.88;;;30.80;99.90;35.10;101626.00;;;;5135174;27;20191;-71
2023/09/05 13:45:43;;;;;;;0.10;0.10;;;31.00;99.90;35.30;101651.00;;;;5131776;27;20258;-71
2023/09/05 13:48:16;;;;;;;1.00;0.45;;;30.90;99.90;34.50;101621.00;;;;5110963;27;20178;-71
2023/09/05 13:51:04;;;;;;;0.82;0.80;;;30.80;99.90;34.60;101644.00;;;;5116111;27;20527;-72
2023/09/05 13:53:52;;;;;;;0.20;0.20;;;30.70;99.90;35.00;101644.00;;;;5115491;27;20202;-72
2023/09/05 13:56:37;;;;;;;0.65;0.65;;;30.80;99.90;35.00;101626.00;;;;5131851;27;20167;-72
2023/09/05 13:59:09;;;;;;;0.52;0.30;;;30.80;99.90;34.70;101619.00;;;;5116162;27;20179;-72
2023/09/05 14:02:19;;;;;;;0.38;0.38;;;30.80;99.90;34.90;101617.00;;;;5119477;27;20175;-74
2023/09/05 14:04:50;;;;;;;0.10;0.10;;;30.80;99.90;35.00;101630.00;;;;5031745;28;20287;-74
2023/09/05 14:07:22;;;;;;;0.90;0.90;;;30.80;99.90;33.90;101635.00;;;;5121889;27;20197;-74
2023/09/05 14:09:56;;;;;;;0.52;0.45;;;30.50;99.90;34.00;101645.00;;;;5154536;27;20179;-74
2023/09/05 14:12:41;;;;;;;0.10;0.10;;;30.40;99.90;35.10;101634.00;;;;5135671;27;20210;-74
2023/09/05 14:15:14;;;;;;;0.25;0.25;;;30.60;99.90;34.70;101636.00;;;;5136008;27;20190;-75
2023/09/05 14:17:52;;;;;;;0.10;0.10;;;30.70;99.90;35.00;101633.00;;;;5154129;27;20186;-74
2023/09/05 14:20:23;;;;;;;0.20;0.20;;;30.80;99.90;35.00;101637.00;;;;5134577;27;20678;-74
2023/09/05 14:23:10;;;;;;;0.10;0.10;;;30.80;99.90;35.50;101613.00;;;;5141516;27;20208;-74
2023/09/05 14:25:52;;;;;;;0.10;0.10;;;31.00;99.90;34.50;101621.00;;;;5130531;27;20231;-74
2023/09/05 14:28:50;;;;;;;0.40;0.40;;;30.80;99.90;35.40;101614.00;;;;5134146;27;20250;-74
2023/09/05 14:31:21;;;;;;;0.35;0.35;;;30.80;99.90;35.30;101602.00;;;;5115747;27;20201;-74
2023/09/05 14:34:03;;;;;;;1.00;0.85;;;31.00;99.90;35.60;101599.00;;;;5117450;27;20646;-74
2023/09/05 14:36:38;;;;;;;0.35;0.35;;;31.00;99.90;35.60;101587.00;;;;5141219;27;20200;-74
2023/09/05 14:39:34;;;;;;;0.57;0.45;;;31.00;99.90;34.50;101599.00;;;;5118284;27;20182;-73
2023/09/05 14:42:07;;;;;;;0.10;0.10;;;31.00;99.90;34.80;101601.00;;;;5135899;27;20250;-74
2023/09/05 14:44:33;;;;;;;0.15;0.15;;;30.70;99.90;35.60;101584.00;;;;5136386;27;20220;-74
2023/09/05 14:46:59;;;;;;;0.22;0.22;;;30.90;99.90;34.30;101612.00;;;;5115333;28;20183;-74
2023/09/05 14:49:29;;;;;;;0.10;0.10;;;30.50;99.90;35.40;101604.00;;;;5153863;27;20683;-73
2023/09/05 14:51:55;;;;;;;0.10;0.10;;;30.70;99.90;35.30;101603.00;;;;5149117;27;20202;-74
2023/09/05 14:54:39;;;;;;;0.20;0.20;;;30.80;99.90;35.30;101607.00;;;;5135276;27;20175;-74
2023/09/05 14:57:14;;;;;;;1.95;1.10;;;30.80;99.90;33.80;101629.00;;;;5139260;27;20603;-74
2023/09/05 14:59:55;;;;;;;0.10;0.10;;;30.60;99.90;35.10;101619.00;;;;5117660;28;20195;-73
2023/09/05 15:03:01;;;;;;;0.10;0.10;;;30.70;99.90;35.30;101592.00;;;;5100785;28;20335;-73
2023/09/05 15:05:42;;;;;;;0.10;0.10;;;30.80;99.90;35.50;101607.00;;;;5102296;28;20222;-73
2023/09/05 15:08:08;;;;;;;0.47;0.47;;;30.90;99.90;35.00;101605.00;;;;5120953;28;20180;-74
2023/09/05 15:11:06;;;;;;;0.40;0.40;;;31.00;99.90;34.40;101612.00;;;;5094244;28;20225;-73
2023/09/05 15:13:58;;;;;;;0.22;0.22;;;30.70;99.90;35.00;101622.00;;;;5109770;28;20204;-73
2023/09/05 15:16:46;;;;;;;0.15;0.15;;;30.80;99.90;34.90;101607.00;;;;5117214;28;20237;-73
2023/09/05 15:19:33;;;;;;;0.57;0.57;;;30.60;99.90;34.50;101634.00;;;;5097049;27;20249;-73
2023/09/05 15:22:10;;;;;;;0.10;0.10;;;30.60;99.90;35.00;101632.00;;;;5116304;27;20823;-75
2023/09/05 15:24:46;;;;;;;0.10;0.10;;;30.50;99.90;35.60;101634.00;;;;5113086;27;20667;-74
2023/09/05 15:27:12;;;;;;;0.43;0.30;;;30.80;99.90;34.60;101626.00;;;;5115921;27;20187;-75
2023/09/05 15:29:38;;;;;;;0.20;0.20;;;30.80;99.90;34.60;101634.00;;;;5119785;27;20367;-75
2023/09/05 15:32:11;;;;;;;0.32;0.32;;;30.60;99.90;34.00;101618.00;;;;5121625;27;20191;-76
2023/09/05 15:34:37;;;;;;;0.30;0.30;;;30.60;99.90;34.20;101619.00;;;;5122582;27;20644;-76
2023/09/05 15:37:08;;;;;;;0.10;0.10;;;30.30;99.90;34.30;101636.00;;;;5138743;27;20183;-76
2023/09/05 15:39:43;;;;;;;1.77;0.88;;;30.40;99.90;33.80;101648.00;;;;5138429;27;20656;-75
2023/09/05 15:42:14;;;;;;;0.35;0.35;;;30.30;99.90;35.00;101642.00;;;;5138616;27;20201;-75
2023/09/05 15:44:40;;;;;;;0.47;0.47;;;30.40;99.90;34.50;101629.00;;;;5118294;27;20186;-77
2023/09/05 15:47:06;;;;;;;0.20;0.20;;;30.60;99.90;34.40;101631.00;;;;5137027;27;20274;-75
2023/09/05 15:49:32;;;;;;;4.00;1.23;;;30.40;99.90;34.50;101627.00;;;;5116391;27;20188;-75
2023/09/05 15:52:04;;;;;;;0.40;0.40;;;30.30;99.90;34.30;101629.00;;;;5156022;27;20609;-71
2023/09/05 15:54:33;;;;;;;0.50;0.50;;;30.40;99.90;34.70;101638.00;;;;5120828;27;20653;-74
2023/09/05 15:57:07;;;;;;;0.20;0.20;;;30.20;99.90;35.10;101623.00;;;;5123621;27;20534;-74
2023/09/05 15:59:44;;;;;;;0.40;0.40;;;30.40;99.90;35.00;101616.00;;;;5125178;27;20183;-74
2023/09/05 16:02:16;;;;;;;0.10;0.10;;;30.80;99.90;34.50;101622.00;;;;5131303;27;20589;-76
2023/09/05 16:04:42;;;;;;;0.52;0.52;;;30.50;99.90;34.40;101621.00;;;;5121563;27;20187;-76
2023/09/05 16:07:11;;;;;;;0.10;0.10;;;30.40;99.90;35.10;101622.00;;;;5133003;27;20184;-74
2023/09/05 16:09:37;;;;;;;0.20;0.20;;;30.60;99.90;35.00;101615.00;;;;5129244;27;20633;-74
2023/09/05 16:12:04;;;;;;;0.30;0.30;;;30.60;99.90;35.60;101616.00;;;;5119382;27;20195;-71
2023/09/05 16:14:40;;;;;;;3.50;0.45;;;30.70;99.90;34.70;101607.00;;;;5143842;27;20208;-75
2023/09/05 16:17:33;;;;;;;0.32;0.32;;;30.50;99.90;34.30;101609.00;;;;5124323;27;20196;-77
2023/09/05 16:20:12;;;;;;;0.28;0.28;;;30.50;99.90;34.70;101601.00;;;;5119455;27;20241;-77
2023/09/05 16:22:45;;;;;;;0.10;0.10;;;30.30;99.90;35.50;101612.00;;;;5135421;27;20197;-76
2023/09/05 16:25:30;;;;;;;0.10;0.10;;;30.50;99.90;35.80;101608.00;;;;5138685;27;20171;-76
2023/09/05 16:28:26;;;;;;;;;;;;;;;;;;;;;
2023/09/05 16:31:06;;;;;;;0.30;0.30;;;30.80;99.90;35.30;101617.00;;;;5141224;27;20255;-77
2023/09/05 16:33:32;;;;;;;0.20;0.20;;;30.60;99.90;34.80;101615.00;;;;5120889;27;20293;-76
2023/09/05 16:36:22;;;;;;;0.35;0.35;;;30.60;99.90;34.90;101550.00;;;;5144952;27;20203;-77
2023/09/05 16:38:53;;;;;;;0.10;0.10;;;30.70;99.90;34.70;101632.00;;;;5127419;27;20243;-76
2023/09/05 16:41:22;;;;;;;0.60;0.60;;;30.50;99.90;34.90;101625.00;;;;5139031;27;20190;-76
2023/09/05 16:43:49;;;;;;;0.55;0.50;;;30.60;99.90;34.60;101565.00;;;;5136701;27;20190;-78
2023/09/05 16:46:35;;;;;;;3.00;1.95;;;30.60;99.90;34.50;101640.00;;;;5156200;27;20263;-77
2023/09/05 16:49:16;;;;;;;1.05;1.05;;;30.40;99.90;34.00;101639.00;;;;5130813;27;20645;-76
2023/09/05 16:52:20;;;;;;;0.35;0.35;;;30.30;99.90;34.40;101641.00;;;;5120533;27;20232;-78
2023/09/05 16:54:49;;;;;;;0.30;0.30;;;30.20;99.90;35.20;101636.00;;;;5092263;28;20197;-76
2023/09/05 16:57:41;;;;;;;0.30;0.30;;;30.40;99.90;35.00;101636.00;;;;5075678;28;20189;-76
2023/09/05 17:00:39;;;;;;;0.20;0.20;;;30.40;99.90;34.60;101637.00;;;;5071373;28;20188;-76
2023/09/05 17:03:09;;;;;;;0.55;0.55;;;30.20;99.90;33.30;101660.00;;;;5074880;28;20203;-76
2023/09/05 17:06:00;;;;;;;0.52;0.52;;;30.00;99.90;34.60;101646.00;;;;5075145;28;20263;-76
2023/09/05 17:08:34;;;;;;;0.25;0.25;;;29.90;99.90;34.10;101645.00;;;;5061854;28;20173;-77
2023/09/05 17:11:35;;;;;;;0.20;0.20;;;30.10;99.90;35.10;101633.00;;;;5075126;28;20188;-76
2023/09/05 17:14:12;;;;;;;0.60;0.60;;;30.10;99.90;34.90;101633.00;;;;5090522;28;20185;-76
2023/09/05 17:17:20;;;;;;;0.15;0.15;;;30.30;99.90;34.70;101616.00;;;;5056117;28;20201;-77
2023/09/05 17:19:46;;;;;;;0.20;0.20;;;30.30;99.90;35.00;101631.00;;;;5066417;28;20216;-76
2023/09/05 17:22:29;;;;;;;0.10;0.10;;;30.40;99.90;34.80;101633.00;;;;5074147;28;20572;-76
2023/09/05 17:24:55;;;;;;;0.10;0.10;;;30.20;99.90;35.20;101624.00;;;;5083537;28;20184;-76
2023/09/05 17:27:35;;;;;;;0.10;0.10;;;30.40;99.90;34.90;101638.00;;;;5053759;28;20188;-77
2023/09/05 17:30:15;;;;;;;0.10;0.10;;;30.30;99.90;35.60;101614.00;;;;5117494;27;20549;-76
2023/09/05 17:32:53;;;;;;;0.28;0.28;;;30.50;99.90;34.70;101636.00;;;;5147139;27;20190;-76
2023/09/05 17:35:21;;;;;;;0.10;0.10;;;30.50;99.90;35.10;101617.00;;;;5136478;27;20190;-77
2023/09/05 17:37:56;;;;;;;0.25;0.25;;;30.30;99.90;35.20;101630.00;;;;5118219;27;20261;-77
2023/09/05 17:40:21;;;;;;;0.10;0.10;;;30.20;99.90;34.90;101641.00;;;;5135420;27;20187;-77
2023/09/05 17:43:00;;;;;;;0.10;0.10;;;30.20;99.90;35.30;101631.00;;;;5154122;27;20215;-76
2023/09/05 17:45:47;;;;;;;0.10;0.10;;;30.20;99.90;35.60;101624.00;;;;5116981;27;20195;-76
2023/09/05 17:48:20;;;;;;;0.10;0.10;;;30.40;99.90;35.40;101633.00;;;;5135267;27;20230;-77
2023/09/05 17:50:57;;;;;;;0.10;0.10;;;30.40;99.90;35.20;101628.00;;;;5109388;27;20183;-76
2023/09/05 17:53:29;;;;;;;0.10;0.10;;;30.30;99.90;35.10;101631.00;;;;5133633;27;20720;-77
2023/09/05 17:56:20;;;;;;;0.10;0.10;;;30.20;99.90;35.30;101628.00;;;;5110131;27;20175;-76
2023/09/05 17:59:00;;;;;;;0.20;0.20;;;30.20;99.90;34.90;101630.00;;;;5129263;27;20218;-77
2023/09/05 18:01:26;;;;;;;0.10;0.10;;;30.00;99.90;35.10;101649.00;;;;5136836;27;20183;-76
2023/09/05 18:03:58;;;;;;;0.17;0.17;;;30.00;99.90;34.50;101652.00;;;;5154453;27;20884;-77
2023/09/05 18:06:29;;;;;;;0.10;0.10;;;29.80;99.90;34.70;101659.00;;;;5154053;27;20656;-76
2023/09/05 18:08:58;;;;;;;0.10;0.10;;;29.60;99.90;34.30;101656.00;;;;5122271;27;20637;-76
2023/09/05 18:11:57;;;;;;;0.10;0.10;;;29.50;99.90;34.10;101673.00;;;;5125149;27;20187;-76
2023/09/05 18:14:32;;;;;;;0.10;0.10;;;29.30;99.90;34.20;101673.00;;;;5125346;27;20205;-76
2023/09/05 18:17:06;;;;;;;0.20;0.20;;;29.10;99.90;34.60;101643.00;;;;5132448;27;20193;-77
2023/09/05 18:22:50;;;;;;;0.20;0.20;;;29.40;99.90;34.30;101676.00;;;;5143779;27;20655;-76
2023/09/05 18:25:27;;;;;;;0.10;0.10;;;29.30;99.90;34.10;101675.00;;;;5135342;27;20525;-76
2023/09/05 18:28:08;;;;;;;0.30;0.30;;;29.20;99.90;33.90;101681.00;;;;5118390;27;20203;-76
2023/09/05 18:30:37;;;;;;;0.10;0.10;;;29.10;99.90;33.70;101687.00;;;;5136504;27;20234;-76
2023/09/05 18:33:06;;;;;;;0.17;0.17;;;29.00;99.90;33.30;101689.00;;;;5132634;27;20728;-76
2023/09/05 18:36:07;;;;;;;0.10;0.10;;;28.90;99.90;33.20;101712.00;;;;5154318;27;20672;-76
2023/09/05 18:38:45;;;;;;;0.10;0.10;;;28.60;99.90;33.10;101690.00;;;;5126527;27;20175;-77
2023/09/05 18:41:35;;;;;;;0.10;0.10;;;28.40;99.90;32.70;101707.00;;;;5136085;27;20189;-76
2023/09/05 18:44:01;;;;;;;0.20;0.20;;;28.10;99.90;33.00;101708.00;;;;5154626;27;20185;-76
2023/09/05 18:46:27;;;;;;;0.20;0.20;;;28.20;99.90;33.30;101701.00;;;;5136012;27;20265;-76
2023/09/05 18:49:01;;;;;;;0.17;0.17;;;28.20;99.90;33.40;101699.00;;;;5136228;27;20218;-77
2023/09/05 18:51:51;;;;;;;0.10;0.10;;;28.30;99.90;33.30;101698.00;;;;5118897;27;20178;-77
2023/09/05 18:54:18;;;;;;;0.20;0.20;;;28.50;99.90;33.40;101687.00;;;;5150842;27;20190;-76
2023/09/05 18:56:58;;;;;;;0.10;0.10;;;28.50;99.90;33.30;101687.00;;;;5123120;27;20175;-76
2023/09/05 18:59:33;;;;;;;0.10;0.10;;;28.50;99.90;32.50;101699.00;;;;5159192;27;20159;-76
2023/09/05 19:02:11;;;;;;;0.10;0.10;;;28.30;99.90;32.80;101693.00;;;;5152871;27;20194;-77
2023/09/05 19:04:40;;;;;;;0.20;0.20;;;28.20;99.90;32.20;101673.00;;;;5116559;27;20209;-76
2023/09/05 19:07:11;;;;;;;0.10;0.10;;;28.00;99.90;31.90;101680.00;;;;5129535;27;20649;-76